サンフランシスコ の空港の天気 - METARとTAF

サンフランシスコ国際空港 ( KSFO / SFO ) - アメリカ カリフォルニア州サンマテオ郡
飛行場実況気象(Metar)
観測時間05/27 03:56 PDT (05/27 10:56 UTC)
風向・風速西南西 2m/s
視程10km以上
天気現象
少しの雲 雲底高度 300m
気温12.2℃
湿度80%
気圧1015.8hPa
METARKSFO 271056Z 25004KT 10SM FEW010 12/09 A3000 RMK AO2 SLP158 T01220089
過去の天気等 Google飛行場航空写真 Wunderground天気予報

過去48時間のMETAR

飛行場予報(TAF)
発表時間: 5/27 04:33 PDT (5/27 11:33 UTC)
予報対象時間: 27日5時 PDT ~ 28日11時 PDT
風向・風速不定 1m/s
視程10km以上
少しの雲 雲底高度 300m
27日5時 PDT ~ 27日8時 PDT に一時的に
全天の8割程度の雲 雲底高度 300m
27日9時 PDT から
風向・風速不定 3m/s
視程10km以上
少しの雲 雲底高度 340m
27日12時 PDT から
風向・風速北西 4m/s
視程10km以上
なし
27日15時 PDT から
風向・風速西北西 8m/s
視程10km以上
なし
27日21時 PDT から
風向・風速西 5m/s
視程10km以上
なし
28日1時 PDT から
風向・風速西 3m/s
視程10km以上
なし
28日5時 PDT から
風向・風速不定 2m/s
視程10km以上
少しの雲 雲底高度 240m
KSFO 271133Z 2712/2818 VRB02KT P6SM FEW010
TEMPO 2712/2715 BKN010
FM271600 VRB05KT P6SM FEW011
FM271900 31007KT P6SM SKC
FM272200 29015KT P6SM SKC
FM280400 28009KT P6SM SKC
FM280800 27005KT P6SM SKC
FM281200 VRB04KT P6SM FEW008